WetterOnline ( https://www.wetteronline.de )

Wetter aktuell Helgoland

Aktuelles Wetter: Helgoland/Düne (8m)

6-stündlich | Neueste Meldungen
Ortszeit Temperatur Wetter
So, 16.05. 2:00 9.1° C wolkig
Sa, 15.05. 20:00 9.7° C bedeckt
Sa, 15.05. 14:00 10.1° C bedeckt
Sa, 15.05. 8:00 8.1° C bedeckt
Sa, 15.05. 2:00 8.2° C bedeckt
Fr, 14.05. 20:00 8.3° C leichter Regen
Fr, 14.05. 14:00 9.1° C leichter Regen
Fr, 14.05. 8:00 8.2° C Sprühregen
Ortszeit Temperatur Wetter
So, 16.05. 5:30 8.9° C Nebel
So, 16.05. 5:20 8.9° C Sprühregen
So, 16.05. 5:10 9.0° C Nebel
So, 16.05. 5:00 9.2° C Sprühregen
So, 16.05. 4:50 9.2° C Sprühregen
So, 16.05. 4:40 9.3° C leichter Regen
So, 16.05. 4:30 9.4° C bewölkt
So, 16.05. 4:00 9.3° C wolkig
Ortszeit Relative Feuchte Sichtweite
So, 16.05. 2:00 95% 16 km
Sa, 15.05. 20:00 81% 35 km
Sa, 15.05. 14:00 74% 35 km
Sa, 15.05. 8:00 84% 55 km
Sa, 15.05. 2:00 89% 26 km
Fr, 14.05. 20:00 92% 12 km
Fr, 14.05. 14:00 88% 17 km
Fr, 14.05. 8:00 93% 13 km
Ortszeit Relative Feuchte Sichtweite
So, 16.05. 5:30 100% 100 m
So, 16.05. 5:20 100% -
So, 16.05. 5:10 100% -
So, 16.05. 5:00 99% 0.3 km
So, 16.05. 4:50 99% -
So, 16.05. 4:40 98% -
So, 16.05. 4:30 97% 4.6 km
So, 16.05. 4:00 96% 7 km
Ortszeit Niederschlagsmenge Niederschlagsart
So, 16.05. 2:00 0.0 l/m2 in 6 Std. -
Sa, 15.05. 20:00 0.0 l/m2 in 12 Std. -
Sa, 15.05. 14:00 0.0 l/m2 in 6 Std. -
Sa, 15.05. 8:00 0.3 l/m2 in 12 Std. Sprühregen
Sa, 15.05. 2:00 0.3 l/m2 in 6 Std. Regen
Fr, 14.05. 20:00 0.7 l/m2 in 12 Std. Regen
Fr, 14.05. 14:00 0.1 l/m2 in 6 Std. Regen
Fr, 14.05. 8:00 0.1 l/m2 in 12 Std. Regen
Ortszeit Niederschlagsmenge Niederschlagsart
So, 16.05. 5:30 0.1 l/m2 in 1 Std. -
So, 16.05. 5:20 keine Meldung -
So, 16.05. 5:10 keine Meldung -
So, 16.05. 5:00 0.1 l/m2 in 1 Std. Regen
So, 16.05. 4:50 keine Meldung -
So, 16.05. 4:40 keine Meldung -
So, 16.05. 4:30 0.0 l/m2 in 1 Std. -
So, 16.05. 4:00 0.0 l/m2 in 1 Std. -
Ortszeit Stärke Spitze Richtung
km/h Bft. km/h Grad Sektor
So, 16.05. 2:00 9 2 31 130° SO
Sa, 15.05. 20:00 17 3 22 60° NO
Sa, 15.05. 14:00 4 1 18 150° SO
Sa, 15.05. 8:00 9 2 26 260° W
Sa, 15.05. 2:00 19 3 24 280° W
Fr, 14.05. 20:00 11 2 29 270° W
Fr, 14.05. 14:00 18 3 32 280° W
Fr, 14.05. 8:00 18 3 25 310° NW
Ortszeit Stärke Spitze Richtung
km/h Bft. km/h Grad Sektor
So, 16.05. 5:30 15 3 19 110° O
So, 16.05. 5:20 15 3 - 110° O
So, 16.05. 5:10 15 3 - 120° SO
So, 16.05. 5:00 17 3 20 110° O
So, 16.05. 4:50 17 3 - 110° O
So, 16.05. 4:40 17 3 - 110° O
So, 16.05. 4:30 14 3 18 110° O
So, 16.05. 4:00 13 3 15 110° O
Ortszeit Untergrenze Bedeckung Gattung
total tief tief mittel hoch
So, 16.05. 2:00 1500 m 8/8 2/8 - - -
Sa, 15.05. 20:00 960 m 8/8 8/8 - - -
Sa, 15.05. 14:00 840 m 8/8 8/8 - - -
Sa, 15.05. 8:00 450 m 8/8 8/8 - - -
Sa, 15.05. 2:00 300 m 8/8 8/8 - - -
Fr, 14.05. 20:00 330 m 8/8 8/8 - - -
Fr, 14.05. 14:00 360 m 7/8 7/8 - - -
Fr, 14.05. 8:00 210 m 8/8 8/8 - - -
Ortszeit Bedeckungsgrad in Achtel und Wolkenuntergrenze
So, 16.05. 5:30 8(<30m)
So, 16.05. 5:20 8(<30m)
So, 16.05. 5:10 8(<30m)
So, 16.05. 5:00 8(30m)
So, 16.05. 4:50 8(30m)
So, 16.05. 4:40 8(60m) 8(2700m) 8(3600m)
So, 16.05. 4:30 5(90m) 7(2700m) 8(5100m)
So, 16.05. 4:00 3(120m) 8(3900m) 8(4800m)
Ortszeit Luftdruck NN (hPa) Tendenz (hPa in 3 Std.)
So, 16.05. 2:00 1001 - 0,8
Sa, 15.05. 20:00 1002 - 1,2
Sa, 15.05. 14:00 1004 - 0,9
Sa, 15.05. 8:00 1006 - 0,5
Sa, 15.05. 2:00 1007 - 0,4
Fr, 14.05. 20:00 1007 - 0,4
Fr, 14.05. 14:00 1007 + 0,1
Fr, 14.05. 8:00 1006 - 0,2
Ortszeit Luftdruck NN (hPa) Tendenz (hPa in 3 Std.)
So, 16.05. 5:30 1000 - 0,5
So, 16.05. 5:20 1000 keine Meldung
So, 16.05. 5:10 1000 keine Meldung
So, 16.05. 5:00 1000 - 0,8
So, 16.05. 4:50 1000 keine Meldung
So, 16.05. 4:40 1000 keine Meldung
So, 16.05. 4:30 1000 - 1,0
So, 16.05. 4:00 1000 - 0,9
Ortszeit Schneehöhe (cm)
So, 16.05. 2:00 0
Sa, 15.05. 20:00 0
Sa, 15.05. 14:00 0
Sa, 15.05. 8:00 0
Sa, 15.05. 2:00 0
Fr, 14.05. 20:00 0
Fr, 14.05. 14:00 0
Fr, 14.05. 8:00 0
Ortszeit Schneehöhe (cm)
So, 16.05. 5:30 0
So, 16.05. 5:20 0
So, 16.05. 5:10 0
So, 16.05. 5:00 0
So, 16.05. 4:50 0
So, 16.05. 4:40 0
So, 16.05. 4:30 0
So, 16.05. 4:00 0
Link zu dieser Seite / Seite empfehlen

Das Wetter in ...